KRHI

Rhinelander-Oneida County Airport

Rhinelander, Wisconsin, USA
KRHI 201728Z 2018/2118 02008G14KT P6SM SCT022 TEMPO 2018/2022 BKN022 FM202200 01007KT P6SM SCT150 FM210000 VRB03KT P6SM SKC FM211000 VRB03KT P6SM SKC FM211300 16005KT P6SM SCT250
Issued Valid From Valid To
Jan-20 @ 17:28 UTC
(4 hours ago)
Jan-20 @ 18:00 UTC
(4 hours ago)
Jan-21 @ 18:00 UTC
(in 20 hours)
Jan-20 @ 18:00 to Jan-20 @ 22:00
KRHI 201728Z 2018/2118 02008G14KT P6SM SCT022
Wind Visibility Clouds
20° at 8 knots
 Gusting to 14 knots
Greater than 6 miles
  • Scattered at 2,200' AGL
Temporary Jan-20 @ 18:00 to Jan-20 @ 22:00
TEMPO 2018/2022 BKN022
Clouds
  • Broken at 2,200' AGL
From Jan-20 @ 22:00 to Jan-21 @ 00:00
FM202200 01007KT P6SM SCT150
Wind Visibility Clouds
10° at 7 knots Greater than 6 miles
  • Scattered at 15,000' AGL
From Jan-21 @ 00:00 to Jan-21 @ 10:00
FM210000 VRB03KT P6SM SKC
Wind Visibility Clouds
Variable at 3 knots Greater than 6 miles
  • Clear skies
From Jan-21 @ 10:00 to Jan-21 @ 13:00
FM211000 VRB03KT P6SM SKC
Wind Visibility Clouds
Variable at 3 knots Greater than 6 miles
  • Clear skies
From Jan-21 @ 13:00 to Jan-21 @ 18:00
FM211300 16005KT P6SM SCT250
Wind Visibility Clouds
160° at 5 knots Greater than 6 miles
  • Scattered at 25,000' AGL
KRHI 201728Z 2018/2118 02008G14KT P6SM SCT022 TEMPO 2018/2022 BKN022 FM202200 01007KT P6SM SCT150 FM210000 VRB03KT P6SM SKC FM211000 VRB03KT P6SM SKC FM211300 16005KT P6SM SCT250
Issued Jan-20 @ 17:28 UTC
(4 hours ago)
Valid From Jan-20 @ 18:00 UTC
(4 hours ago)
Valid To Jan-21 @ 18:00 UTC
(in 20 hours)
Jan-20 @ 18:00 - Jan-20 @ 22:00
Wind Visibility
20° at 8 knots
 Gusting to 14 knots
Greater than 6 miles
Clouds
  • Scattered at 2,200' AGL
Temporary Jan-20 @ 18:00 - Jan-20 @ 22:00
Clouds
  • Broken at 2,200' AGL
From Jan-20 @ 22:00 - Jan-21 @ 00:00
Wind Visibility
10° at 7 knots Greater than 6 miles
Clouds
  • Scattered at 15,000' AGL
From Jan-21 @ 00:00 - Jan-21 @ 10:00
Wind Visibility
Variable at 3 knots Greater than 6 miles
Clouds
  • Clear skies
From Jan-21 @ 10:00 - Jan-21 @ 13:00
Wind Visibility
Variable at 3 knots Greater than 6 miles
Clouds
  • Clear skies
From Jan-21 @ 13:00 - Jan-21 @ 18:00
Wind Visibility
160° at 5 knots Greater than 6 miles
Clouds
  • Scattered at 25,000' AGL